sensor_id;sensor_type;location;lat;lon;timestamp;temperature;humidity
67817;DHT22;54614;47.576;7.524;2023-04-03T00:00:52;23.90;50.40
67817;DHT22;54614;47.576;7.524;2023-04-03T00:03:18;23.90;50.30
67817;DHT22;54614;47.576;7.524;2023-04-03T00:05:45;23.90;50.30
67817;DHT22;54614;47.576;7.524;2023-04-03T00:08:12;23.90;50.30
67817;DHT22;54614;47.576;7.524;2023-04-03T00:10:38;23.90;50.30
67817;DHT22;54614;47.576;7.524;2023-04-03T00:13:05;23.90;50.30
67817;DHT22;54614;47.576;7.524;2023-04-03T00:15:31;23.90;51.00
67817;DHT22;54614;47.576;7.524;2023-04-03T00:17:58;23.90;50.30
67817;DHT22;54614;47.576;7.524;2023-04-03T00:20:24;23.90;50.30
67817;DHT22;54614;47.576;7.524;2023-04-03T00:22:50;23.90;50.20
67817;DHT22;54614;47.576;7.524;2023-04-03T00:25:16;23.90;50.30
67817;DHT22;54614;47.576;7.524;2023-04-03T00:27:41;23.90;50.30
67817;DHT22;54614;47.576;7.524;2023-04-03T00:30:11;23.90;50.30
67817;DHT22;54614;47.576;7.524;2023-04-03T00:32:39;23.90;50.30
67817;DHT22;54614;47.576;7.524;2023-04-03T00:35:05;23.80;50.20
67817;DHT22;54614;47.576;7.524;2023-04-03T00:37:32;23.80;50.20
67817;DHT22;54614;47.576;7.524;2023-04-03T00:39:58;23.90;50.30
67817;DHT22;54614;47.576;7.524;2023-04-03T00:42:24;23.80;50.20
67817;DHT22;54614;47.576;7.524;2023-04-03T00:47:22;23.80;50.20
67817;DHT22;54614;47.576;7.524;2023-04-03T00:49:49;23.80;50.20
67817;DHT22;54614;47.576;7.524;2023-04-03T00:52:19;23.80;50.80
67817;DHT22;54614;47.576;7.524;2023-04-03T00:54:50;23.80;50.20
67817;DHT22;54614;47.576;7.524;2023-04-03T00:57:21;23.90;50.20
67817;DHT22;54614;47.576;7.524;2023-04-03T00:59:55;23.80;50.20
67817;DHT22;54614;47.576;7.524;2023-04-03T01:02:25;23.80;50.10
67817;DHT22;54614;47.576;7.524;2023-04-03T01:04:51;23.80;50.10
67817;DHT22;54614;47.576;7.524;2023-04-03T01:07:29;23.80;50.10
67817;DHT22;54614;47.576;7.524;2023-04-03T01:09:58;23.80;50.00
67817;DHT22;54614;47.576;7.524;2023-04-03T01:12:28;23.80;50.10
67817;DHT22;54614;47.576;7.524;2023-04-03T01:15:00;23.80;50.00
67817;DHT22;54614;47.576;7.524;2023-04-03T01:17:50;23.80;50.00
67817;DHT22;54614;47.576;7.524;2023-04-03T01:25:50;23.70;50.10
67817;DHT22;54614;47.576;7.524;2023-04-03T01:31:19;23.80;50.00
67817;DHT22;54614;47.576;7.524;2023-04-03T01:33:46;23.80;49.90
67817;DHT22;54614;47.576;7.524;2023-04-03T01:36:20;23.80;50.00
67817;DHT22;54614;47.576;7.524;2023-04-03T01:38:50;23.80;49.90
67817;DHT22;54614;47.576;7.524;2023-04-03T01:41:17;23.80;50.00
67817;DHT22;54614;47.576;7.524;2023-04-03T01:43:43;23.80;50.00
67817;DHT22;54614;47.576;7.524;2023-04-03T01:46:09;23.80;49.90
67817;DHT22;54614;47.576;7.524;2023-04-03T01:48:35;23.80;49.80
67817;DHT22;54614;47.576;7.524;2023-04-03T01:51:01;23.70;49.90
67817;DHT22;54614;47.576;7.524;2023-04-03T01:53:27;23.80;49.90
67817;DHT22;54614;47.576;7.524;2023-04-03T01:55:53;23.70;49.90
67817;DHT22;54614;47.576;7.524;2023-04-03T01:58:18;23.70;49.90
67817;DHT22;54614;47.576;7.524;2023-04-03T02:00:44;23.70;49.80
67817;DHT22;54614;47.576;7.524;2023-04-03T02:03:11;23.70;49.80
67817;DHT22;54614;47.576;7.524;2023-04-03T02:05:37;23.70;49.80
67817;DHT22;54614;47.576;7.524;2023-04-03T02:08:03;23.70;49.90
67817;DHT22;54614;47.576;7.524;2023-04-03T02:10:29;23.70;49.80
67817;DHT22;54614;47.576;7.524;2023-04-03T02:12:55;23.70;49.80
67817;DHT22;54614;47.576;7.524;2023-04-03T02:15:21;23.70;49.90
67817;DHT22;54614;47.576;7.524;2023-04-03T02:17:47;23.70;49.80
67817;DHT22;54614;47.576;7.524;2023-04-03T02:20:13;23.70;49.80
67817;DHT22;54614;47.576;7.524;2023-04-03T02:22:39;23.70;49.80
67817;DHT22;54614;47.576;7.524;2023-04-03T02:25:05;23.70;49.70
67817;DHT22;54614;47.576;7.524;2023-04-03T02:27:37;23.70;49.70
67817;DHT22;54614;47.576;7.524;2023-04-03T02:30:07;23.70;49.80
67817;DHT22;54614;47.576;7.524;2023-04-03T02:32:34;23.70;49.80
67817;DHT22;54614;47.576;7.524;2023-04-03T02:35:00;23.70;49.80
67817;DHT22;54614;47.576;7.524;2023-04-03T02:37:26;23.70;49.80
67817;DHT22;54614;47.576;7.524;2023-04-03T02:39:52;23.70;49.60
67817;DHT22;54614;47.576;7.524;2023-04-03T02:42:18;23.70;49.80
67817;DHT22;54614;47.576;7.524;2023-04-03T02:44:44;23.70;49.80
67817;DHT22;54614;47.576;7.524;2023-04-03T02:47:10;23.70;49.70
67817;DHT22;54614;47.576;7.524;2023-04-03T02:49:35;23.70;49.70
67817;DHT22;54614;47.576;7.524;2023-04-03T02:52:01;23.70;49.70
67817;DHT22;54614;47.576;7.524;2023-04-03T02:54:27;23.70;49.80
67817;DHT22;54614;47.576;7.524;2023-04-03T02:56:56;23.70;49.70
67817;DHT22;54614;47.576;7.524;2023-04-03T02:59:23;23.70;49.70
67817;DHT22;54614;47.576;7.524;2023-04-03T03:01:49;23.70;49.70
67817;DHT22;54614;47.576;7.524;2023-04-03T03:04:14;23.60;49.70
67817;DHT22;54614;47.576;7.524;2023-04-03T03:06:40;23.60;49.70
67817;DHT22;54614;47.576;7.524;2023-04-03T03:09:07;23.70;49.70
67817;DHT22;54614;47.576;7.524;2023-04-03T03:11:33;23.70;49.70
67817;DHT22;54614;47.576;7.524;2023-04-03T03:13:58;23.70;49.70
67817;DHT22;54614;47.576;7.524;2023-04-03T03:16:28;23.70;49.70
67817;DHT22;54614;47.576;7.524;2023-04-03T03:19:04;23.70;49.70
67817;DHT22;54614;47.576;7.524;2023-04-03T03:21:30;23.60;49.70
67817;DHT22;54614;47.576;7.524;2023-04-03T03:23:55;23.60;49.60
67817;DHT22;54614;47.576;7.524;2023-04-03T03:26:21;23.60;49.50
67817;DHT22;54614;47.576;7.524;2023-04-03T03:28:47;23.60;49.70
67817;DHT22;54614;47.576;7.524;2023-04-03T03:31:13;23.60;49.60
67817;DHT22;54614;47.576;7.524;2023-04-03T03:33:38;23.60;49.50
67817;DHT22;54614;47.576;7.524;2023-04-03T03:36:04;23.60;49.70
67817;DHT22;54614;47.576;7.524;2023-04-03T03:38:30;23.60;49.60
67817;DHT22;54614;47.576;7.524;2023-04-03T03:40:56;23.60;49.50
67817;DHT22;54614;47.576;7.524;2023-04-03T03:43:22;23.60;49.40
67817;DHT22;54614;47.576;7.524;2023-04-03T03:45:52;23.60;49.50
67817;DHT22;54614;47.576;7.524;2023-04-03T03:48:19;23.60;49.60
67817;DHT22;54614;47.576;7.524;2023-04-03T03:50:46;23.60;49.50
67817;DHT22;54614;47.576;7.524;2023-04-03T03:53:18;23.60;49.50
67817;DHT22;54614;47.576;7.524;2023-04-03T03:55:45;23.60;49.60
67817;DHT22;54614;47.576;7.524;2023-04-03T03:58:14;23.60;51.80
67817;DHT22;54614;47.576;7.524;2023-04-03T04:00:43;23.60;51.20
67817;DHT22;54614;47.576;7.524;2023-04-03T04:03:09;23.50;51.10
67817;DHT22;54614;47.576;7.524;2023-04-03T04:05:35;23.50;50.40
67817;DHT22;54614;47.576;7.524;2023-04-03T04:08:01;23.60;50.10
67817;DHT22;54614;47.576;7.524;2023-04-03T04:10:27;23.60;49.90
67817;DHT22;54614;47.576;7.524;2023-04-03T04:12:52;23.60;49.80
67817;DHT22;54614;47.576;7.524;2023-04-03T04:15:18;23.60;49.60
67817;DHT22;54614;47.576;7.524;2023-04-03T04:17:44;23.60;49.60
67817;DHT22;54614;47.576;7.524;2023-04-03T04:20:10;23.60;49.80
67817;DHT22;54614;47.576;7.524;2023-04-03T04:22:37;23.60;49.80
67817;DHT22;54614;47.576;7.524;2023-04-03T04:25:04;23.60;49.20
67817;DHT22;54614;47.576;7.524;2023-04-03T04:27:30;23.60;49.00
67817;DHT22;54614;47.576;7.524;2023-04-03T04:29:56;23.60;48.70
67817;DHT22;54614;47.576;7.524;2023-04-03T04:32:22;23.60;48.60
67817;DHT22;54614;47.576;7.524;2023-04-03T04:34:47;23.60;48.60
67817;DHT22;54614;47.576;7.524;2023-04-03T04:37:13;23.60;48.10
67817;DHT22;54614;47.576;7.524;2023-04-03T04:39:39;23.60;48.60
67817;DHT22;54614;47.576;7.524;2023-04-03T04:42:05;23.60;48.20
67817;DHT22;54614;47.576;7.524;2023-04-03T04:44:32;23.60;48.50
67817;DHT22;54614;47.576;7.524;2023-04-03T04:46:58;23.60;48.20
67817;DHT22;54614;47.576;7.524;2023-04-03T04:49:24;23.60;48.20
67817;DHT22;54614;47.576;7.524;2023-04-03T04:51:50;23.60;48.40
67817;DHT22;54614;47.576;7.524;2023-04-03T04:54:15;23.60;48.30
67817;DHT22;54614;47.576;7.524;2023-04-03T04:56:41;23.60;48.10
67817;DHT22;54614;47.576;7.524;2023-04-03T04:59:07;23.60;48.30
67817;DHT22;54614;47.576;7.524;2023-04-03T05:01:33;23.60;48.30
67817;DHT22;54614;47.576;7.524;2023-04-03T05:03:59;23.60;48.30
67817;DHT22;54614;47.576;7.524;2023-04-03T05:06:24;23.60;48.20
67817;DHT22;54614;47.576;7.524;2023-04-03T05:08:50;23.60;48.10
67817;DHT22;54614;47.576;7.524;2023-04-03T05:11:16;23.60;48.10
67817;DHT22;54614;47.576;7.524;2023-04-03T05:13:42;23.60;48.20
67817;DHT22;54614;47.576;7.524;2023-04-03T05:16:08;23.60;48.20
67817;DHT22;54614;47.576;7.524;2023-04-03T05:18:33;23.60;48.40
67817;DHT22;54614;47.576;7.524;2023-04-03T05:20:59;23.60;48.10
67817;DHT22;54614;47.576;7.524;2023-04-03T05:23:25;23.60;48.10
67817;DHT22;54614;47.576;7.524;2023-04-03T05:25:51;23.60;48.60
67817;DHT22;54614;47.576;7.524;2023-04-03T05:28:18;23.50;48.70
67817;DHT22;54614;47.576;7.524;2023-04-03T05:30:43;23.50;48.80
67817;DHT22;54614;47.576;7.524;2023-04-03T05:33:09;23.50;48.70
67817;DHT22;54614;47.576;7.524;2023-04-03T05:35:37;23.50;49.90
67817;DHT22;54614;47.576;7.524;2023-04-03T05:38:07;23.50;49.80
67817;DHT22;54614;47.576;7.524;2023-04-03T05:40:33;23.50;50.00
67817;DHT22;54614;47.576;7.524;2023-04-03T05:42:58;23.50;55.00
67817;DHT22;54614;47.576;7.524;2023-04-03T05:45:24;23.50;54.90
67817;DHT22;54614;47.576;7.524;2023-04-03T05:47:50;23.50;54.10
67817;DHT22;54614;47.576;7.524;2023-04-03T05:50:16;23.40;53.80
67817;DHT22;54614;47.576;7.524;2023-04-03T05:52:44;23.50;52.90
67817;DHT22;54614;47.576;7.524;2023-04-03T05:55:13;23.50;52.20
67817;DHT22;54614;47.576;7.524;2023-04-03T05:57:39;23.50;51.60
67817;DHT22;54614;47.576;7.524;2023-04-03T06:00:08;23.60;50.50
67817;DHT22;54614;47.576;7.524;2023-04-03T06:02:38;23.60;50.00
67817;DHT22;54614;47.576;7.524;2023-04-03T06:05:04;23.70;50.10
67817;DHT22;54614;47.576;7.524;2023-04-03T06:07:30;23.70;49.80
67817;DHT22;54614;47.576;7.524;2023-04-03T06:09:56;23.70;50.30
67817;DHT22;54614;47.576;7.524;2023-04-03T06:12:23;23.70;49.60
67817;DHT22;54614;47.576;7.524;2023-04-03T06:14:49;23.70;49.70
67817;DHT22;54614;47.576;7.524;2023-04-03T06:17:16;23.70;49.60
67817;DHT22;54614;47.576;7.524;2023-04-03T06:19:44;23.70;49.60
67817;DHT22;54614;47.576;7.524;2023-04-03T06:22:10;23.60;49.40
67817;DHT22;54614;47.576;7.524;2023-04-03T06:24:37;23.70;50.10
67817;DHT22;54614;47.576;7.524;2023-04-03T06:27:03;23.60;49.30
67817;DHT22;54614;47.576;7.524;2023-04-03T06:29:30;23.60;49.40
67817;DHT22;54614;47.576;7.524;2023-04-03T06:31:56;23.60;49.50
67817;DHT22;54614;47.576;7.524;2023-04-03T06:34:22;23.60;49.40
67817;DHT22;54614;47.576;7.524;2023-04-03T06:36:48;23.60;49.40
67817;DHT22;54614;47.576;7.524;2023-04-03T06:39:18;23.60;49.40
67817;DHT22;54614;47.576;7.524;2023-04-03T06:41:49;23.60;49.40
67817;DHT22;54614;47.576;7.524;2023-04-03T06:44:16;23.60;49.40
67817;DHT22;54614;47.576;7.524;2023-04-03T06:46:43;23.60;49.60
67817;DHT22;54614;47.576;7.524;2023-04-03T06:49:10;23.60;50.40
67817;DHT22;54614;47.576;7.524;2023-04-03T06:51:37;23.60;49.90
67817;DHT22;54614;47.576;7.524;2023-04-03T06:54:04;23.60;49.90
67817;DHT22;54614;47.576;7.524;2023-04-03T06:56:31;23.60;49.90
67817;DHT22;54614;47.576;7.524;2023-04-03T06:58:57;23.60;49.90
67817;DHT22;54614;47.576;7.524;2023-04-03T07:01:25;23.60;50.00
67817;DHT22;54614;47.576;7.524;2023-04-03T07:03:53;23.60;50.00
67817;DHT22;54614;47.576;7.524;2023-04-03T07:06:19;23.60;49.90
67817;DHT22;54614;47.576;7.524;2023-04-03T07:08:45;23.60;49.60
67817;DHT22;54614;47.576;7.524;2023-04-03T07:11:12;23.60;49.70
67817;DHT22;54614;47.576;7.524;2023-04-03T07:13:39;23.60;49.80
67817;DHT22;54614;47.576;7.524;2023-04-03T07:16:05;23.60;50.00
67817;DHT22;54614;47.576;7.524;2023-04-03T07:18:32;23.60;50.00
67817;DHT22;54614;47.576;7.524;2023-04-03T07:20:59;23.60;50.00
67817;DHT22;54614;47.576;7.524;2023-04-03T07:23:25;23.60;50.10
67817;DHT22;54614;47.576;7.524;2023-04-03T07:25:51;23.60;50.00
67817;DHT22;54614;47.576;7.524;2023-04-03T07:28:20;23.60;50.10
67817;DHT22;54614;47.576;7.524;2023-04-03T07:31:05;23.60;50.20
67817;DHT22;54614;47.576;7.524;2023-04-03T07:33:34;23.60;49.90
67817;DHT22;54614;47.576;7.524;2023-04-03T07:36:01;23.50;49.60
67817;DHT22;54614;47.576;7.524;2023-04-03T07:38:28;23.60;49.90
67817;DHT22;54614;47.576;7.524;2023-04-03T07:40:54;23.60;49.90
67817;DHT22;54614;47.576;7.524;2023-04-03T07:43:21;23.60;50.00
67817;DHT22;54614;47.576;7.524;2023-04-03T07:45:48;23.60;50.10
67817;DHT22;54614;47.576;7.524;2023-04-03T07:48:22;23.50;50.10
67817;DHT22;54614;47.576;7.524;2023-04-03T07:50:50;23.50;50.10
67817;DHT22;54614;47.576;7.524;2023-04-03T07:53:17;23.50;50.10
67817;DHT22;54614;47.576;7.524;2023-04-03T07:55:45;23.50;50.70
67817;DHT22;54614;47.576;7.524;2023-04-03T07:58:16;23.50;50.10
67817;DHT22;54614;47.576;7.524;2023-04-03T08:00:45;23.50;49.80
67817;DHT22;54614;47.576;7.524;2023-04-03T08:03:12;23.50;49.70
67817;DHT22;54614;47.576;7.524;2023-04-03T08:05:43;23.50;49.80
67817;DHT22;54614;47.576;7.524;2023-04-03T08:08:19;23.50;50.00
67817;DHT22;54614;47.576;7.524;2023-04-03T08:10:51;23.50;50.10
67817;DHT22;54614;47.576;7.524;2023-04-03T08:13:19;23.50;50.20
67817;DHT22;54614;47.576;7.524;2023-04-03T08:15:45;23.50;50.20
67817;DHT22;54614;47.576;7.524;2023-04-03T08:18:12;23.50;50.20
67817;DHT22;54614;47.576;7.524;2023-04-03T08:20:40;23.50;50.20
67817;DHT22;54614;47.576;7.524;2023-04-03T08:23:07;23.50;50.20
67817;DHT22;54614;47.576;7.524;2023-04-03T08:25:37;23.50;50.20
67817;DHT22;54614;47.576;7.524;2023-04-03T08:28:03;23.50;50.00
67817;DHT22;54614;47.576;7.524;2023-04-03T08:30:29;23.50;49.80
67817;DHT22;54614;47.576;7.524;2023-04-03T08:32:55;23.50;49.90
67817;DHT22;54614;47.576;7.524;2023-04-03T08:35:21;23.50;50.10
67817;DHT22;54614;47.576;7.524;2023-04-03T08:37:47;23.50;50.10
67817;DHT22;54614;47.576;7.524;2023-04-03T08:40:15;23.50;50.20
67817;DHT22;54614;47.576;7.524;2023-04-03T08:42:53;23.50;50.20
67817;DHT22;54614;47.576;7.524;2023-04-03T08:48:29;23.50;50.30
67817;DHT22;54614;47.576;7.524;2023-04-03T08:51:04;23.50;50.30
67817;DHT22;54614;47.576;7.524;2023-04-03T08:53:43;23.50;50.20
67817;DHT22;54614;47.576;7.524;2023-04-03T08:56:18;23.40;49.90
67817;DHT22;54614;47.576;7.524;2023-04-03T08:58:59;23.50;49.80
67817;DHT22;54614;47.576;7.524;2023-04-03T09:01:39;23.40;50.00
67817;DHT22;54614;47.576;7.524;2023-04-03T09:04:14;23.50;50.10
67817;DHT22;54614;47.576;7.524;2023-04-03T09:06:55;23.40;50.10
67817;DHT22;54614;47.576;7.524;2023-04-03T09:09:31;23.40;50.20
67817;DHT22;54614;47.576;7.524;2023-04-03T09:14:43;23.40;50.30
67817;DHT22;54614;47.576;7.524;2023-04-03T09:22:43;23.40;49.90
67817;DHT22;54614;47.576;7.524;2023-04-03T09:25:31;23.40;49.90
67817;DHT22;54614;47.576;7.524;2023-04-03T09:28:00;23.40;50.00
67817;DHT22;54614;47.576;7.524;2023-04-03T09:30:35;23.40;50.10
67817;DHT22;54614;47.576;7.524;2023-04-03T09:33:03;23.40;50.00
67817;DHT22;54614;47.576;7.524;2023-04-03T09:35:37;23.40;49.60
67817;DHT22;54614;47.576;7.524;2023-04-03T09:40:42;23.40;49.70
67817;DHT22;54614;47.576;7.524;2023-04-03T09:43:27;23.30;49.50
67817;DHT22;54614;47.576;7.524;2023-04-03T09:45:56;23.40;49.30
67817;DHT22;54614;47.576;7.524;2023-04-03T09:49:01;23.40;49.20
67817;DHT22;54614;47.576;7.524;2023-04-03T09:51:29;23.30;49.20
67817;DHT22;54614;47.576;7.524;2023-04-03T09:53:56;23.40;49.00
67817;DHT22;54614;47.576;7.524;2023-04-03T09:56:30;23.40;49.20
67817;DHT22;54614;47.576;7.524;2023-04-03T10:01:32;23.40;49.00
67817;DHT22;54614;47.576;7.524;2023-04-03T10:04:14;23.40;49.20
67817;DHT22;54614;47.576;7.524;2023-04-03T10:06:50;23.40;49.00
67817;DHT22;54614;47.576;7.524;2023-04-03T10:09:22;23.40;48.80
67817;DHT22;54614;47.576;7.524;2023-04-03T10:12:06;23.40;48.50
67817;DHT22;54614;47.576;7.524;2023-04-03T10:23:23;23.30;48.60
67817;DHT22;54614;47.576;7.524;2023-04-03T10:29:40;23.30;48.30
67817;DHT22;54614;47.576;7.524;2023-04-03T10:38:13;23.40;48.30
67817;DHT22;54614;47.576;7.524;2023-04-03T10:46:41;23.30;48.10
67817;DHT22;54614;47.576;7.524;2023-04-03T10:52:30;23.30;47.90
67817;DHT22;54614;47.576;7.524;2023-04-03T10:57:39;23.30;47.90
67817;DHT22;54614;47.576;7.524;2023-04-03T11:00:17;23.30;47.90
67817;DHT22;54614;47.576;7.524;2023-04-03T11:03:35;23.30;48.00
67817;DHT22;54614;47.576;7.524;2023-04-03T11:06:08;23.30;47.70
67817;DHT22;54614;47.576;7.524;2023-04-03T11:08:44;23.30;47.80
67817;DHT22;54614;47.576;7.524;2023-04-03T11:11:20;23.30;47.80
67817;DHT22;54614;47.576;7.524;2023-04-03T11:14:05;23.30;48.00
67817;DHT22;54614;47.576;7.524;2023-04-03T11:16:45;23.30;47.90
67817;DHT22;54614;47.576;7.524;2023-04-03T11:19:26;23.30;47.80
67817;DHT22;54614;47.576;7.524;2023-04-03T11:24:43;23.10;50.10
67817;DHT22;54614;47.576;7.524;2023-04-03T11:27:20;23.00;50.30
67817;DHT22;54614;47.576;7.524;2023-04-03T11:29:50;23.00;50.10
67817;DHT22;54614;47.576;7.524;2023-04-03T11:35:14;23.00;50.30
67817;DHT22;54614;47.576;7.524;2023-04-03T11:37:48;22.90;49.80
67817;DHT22;54614;47.576;7.524;2023-04-03T11:40:29;23.00;49.80
67817;DHT22;54614;47.576;7.524;2023-04-03T11:45:54;23.00;49.70
67817;DHT22;54614;47.576;7.524;2023-04-03T11:53:41;23.00;49.60
67817;DHT22;54614;47.576;7.524;2023-04-03T12:01:53;23.20;48.70
67817;DHT22;54614;47.576;7.524;2023-04-03T12:04:23;23.20;49.20
67817;DHT22;54614;47.576;7.524;2023-04-03T12:06:54;23.20;48.80
67817;DHT22;54614;47.576;7.524;2023-04-03T12:10:14;23.30;48.40
67817;DHT22;54614;47.576;7.524;2023-04-03T12:12:32;23.30;48.90
67817;DHT22;54614;47.576;7.524;2023-04-03T12:17:45;23.40;48.40
67817;DHT22;54614;47.576;7.524;2023-04-03T12:23:34;23.30;48.80
67817;DHT22;54614;47.576;7.524;2023-04-03T12:26:21;23.60;48.80
67817;DHT22;54614;47.576;7.524;2023-04-03T12:28:52;23.80;48.40
67817;DHT22;54614;47.576;7.524;2023-04-03T12:31:20;23.80;48.50
67817;DHT22;54614;47.576;7.524;2023-04-03T12:34:12;23.70;48.40
67817;DHT22;54614;47.576;7.524;2023-04-03T12:37:07;23.60;49.60
67817;DHT22;54614;47.576;7.524;2023-04-03T12:39:55;23.40;50.90
67817;DHT22;54614;47.576;7.524;2023-04-03T12:45:24;23.20;57.20
67817;DHT22;54614;47.576;7.524;2023-04-03T12:47:55;23.20;54.70
67817;DHT22;54614;47.576;7.524;2023-04-03T12:50:30;23.30;50.80
67817;DHT22;54614;47.576;7.524;2023-04-03T12:55:57;23.30;54.30
67817;DHT22;54614;47.576;7.524;2023-04-03T12:58:50;23.30;53.00
67817;DHT22;54614;47.576;7.524;2023-04-03T13:01:27;23.30;51.60
67817;DHT22;54614;47.576;7.524;2023-04-03T13:03:56;23.40;50.90
67817;DHT22;54614;47.576;7.524;2023-04-03T13:06:27;23.40;50.50
67817;DHT22;54614;47.576;7.524;2023-04-03T13:08:58;23.50;50.40
67817;DHT22;54614;47.576;7.524;2023-04-03T13:11:32;23.50;50.90
67817;DHT22;54614;47.576;7.524;2023-04-03T13:14:22;23.40;50.70
67817;DHT22;54614;47.576;7.524;2023-04-03T13:17:16;23.40;50.70
67817;DHT22;54614;47.576;7.524;2023-04-03T13:19:44;23.50;53.40
67817;DHT22;54614;47.576;7.524;2023-04-03T13:22:33;23.50;53.20
67817;DHT22;54614;47.576;7.524;2023-04-03T13:25:11;23.50;54.20
67817;DHT22;54614;47.576;7.524;2023-04-03T13:27:40;23.40;52.90
67817;DHT22;54614;47.576;7.524;2023-04-03T13:30:23;23.50;52.20
67817;DHT22;54614;47.576;7.524;2023-04-03T13:32:56;23.50;52.00
67817;DHT22;54614;47.576;7.524;2023-04-03T13:35:39;23.50;51.90
67817;DHT22;54614;47.576;7.524;2023-04-03T13:40:57;23.50;51.40
67817;DHT22;54614;47.576;7.524;2023-04-03T13:43:31;23.50;51.20
67817;DHT22;54614;47.576;7.524;2023-04-03T13:48:47;23.50;51.10
67817;DHT22;54614;47.576;7.524;2023-04-03T13:51:18;23.50;50.70
67817;DHT22;54614;47.576;7.524;2023-04-03T13:54:00;23.50;50.30
67817;DHT22;54614;47.576;7.524;2023-04-03T13:56:36;23.50;50.30
67817;DHT22;54614;47.576;7.524;2023-04-03T14:02:06;23.50;50.70
67817;DHT22;54614;47.576;7.524;2023-04-03T14:07:09;23.50;50.60
67817;DHT22;54614;47.576;7.524;2023-04-03T14:09:36;23.50;50.50
67817;DHT22;54614;47.576;7.524;2023-04-03T14:12:08;23.50;50.50
67817;DHT22;54614;47.576;7.524;2023-04-03T14:14:40;23.50;50.50
67817;DHT22;54614;47.576;7.524;2023-04-03T14:17:18;23.50;50.50
67817;DHT22;54614;47.576;7.524;2023-04-03T14:19:48;23.50;50.10
67817;DHT22;54614;47.576;7.524;2023-04-03T14:22:27;23.50;49.90
67817;DHT22;54614;47.576;7.524;2023-04-03T14:24:56;23.50;50.00
67817;DHT22;54614;47.576;7.524;2023-04-03T14:27:35;23.50;50.40
67817;DHT22;54614;47.576;7.524;2023-04-03T14:30:29;23.50;50.40
67817;DHT22;54614;47.576;7.524;2023-04-03T14:32:55;23.50;50.30
67817;DHT22;54614;47.576;7.524;2023-04-03T14:35:22;23.50;50.30
67817;DHT22;54614;47.576;7.524;2023-04-03T14:37:51;23.50;50.30
67817;DHT22;54614;47.576;7.524;2023-04-03T14:40:22;23.50;50.30
67817;DHT22;54614;47.576;7.524;2023-04-03T14:42:51;23.50;50.30
67817;DHT22;54614;47.576;7.524;2023-04-03T14:45:21;23.50;50.10
67817;DHT22;54614;47.576;7.524;2023-04-03T14:47:53;23.40;49.80
67817;DHT22;54614;47.576;7.524;2023-04-03T14:50:23;23.40;49.60
67817;DHT22;54614;47.576;7.524;2023-04-03T14:52:54;23.50;50.00
67817;DHT22;54614;47.576;7.524;2023-04-03T14:55:24;23.50;50.10
67817;DHT22;54614;47.576;7.524;2023-04-03T14:57:52;23.50;50.10
67817;DHT22;54614;47.576;7.524;2023-04-03T15:00:20;23.40;50.10
67817;DHT22;54614;47.576;7.524;2023-04-03T15:02:48;23.40;50.10
67817;DHT22;54614;47.576;7.524;2023-04-03T15:05:15;23.40;50.10
67817;DHT22;54614;47.576;7.524;2023-04-03T15:07:44;23.40;50.10
67817;DHT22;54614;47.576;7.524;2023-04-03T15:10:20;23.40;50.10
67817;DHT22;54614;47.576;7.524;2023-04-03T15:12:53;23.40;49.90
67817;DHT22;54614;47.576;7.524;2023-04-03T15:15:26;23.40;49.60
67817;DHT22;54614;47.576;7.524;2023-04-03T15:17:56;23.40;49.40
67817;DHT22;54614;47.576;7.524;2023-04-03T15:20:27;23.40;49.90
67817;DHT22;54614;47.576;7.524;2023-04-03T15:22:56;23.40;49.90
67817;DHT22;54614;47.576;7.524;2023-04-03T15:25:23;23.40;49.80
67817;DHT22;54614;47.576;7.524;2023-04-03T15:27:50;23.40;49.80
67817;DHT22;54614;47.576;7.524;2023-04-03T15:30:18;23.40;49.80
67817;DHT22;54614;47.576;7.524;2023-04-03T15:32:46;23.40;49.80
67817;DHT22;54614;47.576;7.524;2023-04-03T15:35:12;23.40;49.90
67817;DHT22;54614;47.576;7.524;2023-04-03T15:37:38;23.40;49.90
67817;DHT22;54614;47.576;7.524;2023-04-03T15:40:05;23.40;49.60
67817;DHT22;54614;47.576;7.524;2023-04-03T15:42:34;23.40;49.70
67817;DHT22;54614;47.576;7.524;2023-04-03T15:45:00;23.50;49.50
67817;DHT22;54614;47.576;7.524;2023-04-03T15:47:45;23.50;49.60
67817;DHT22;54614;47.576;7.524;2023-04-03T15:50:14;23.50;50.30
67817;DHT22;54614;47.576;7.524;2023-04-03T15:52:41;23.50;49.80
67817;DHT22;54614;47.576;7.524;2023-04-03T15:55:07;23.50;49.70
67817;DHT22;54614;47.576;7.524;2023-04-03T15:57:33;23.50;49.70
67817;DHT22;54614;47.576;7.524;2023-04-03T15:59:58;23.50;49.60
67817;DHT22;54614;47.576;7.524;2023-04-03T16:02:25;23.50;49.80
67817;DHT22;54614;47.576;7.524;2023-04-03T16:04:54;23.60;49.70
67817;DHT22;54614;47.576;7.524;2023-04-03T16:07:21;23.60;49.40
67817;DHT22;54614;47.576;7.524;2023-04-03T16:09:47;23.60;49.20
67817;DHT22;54614;47.576;7.524;2023-04-03T16:12:17;23.60;49.10
67817;DHT22;54614;47.576;7.524;2023-04-03T16:14:43;23.60;49.10
67817;DHT22;54614;47.576;7.524;2023-04-03T16:17:09;23.60;49.20
67817;DHT22;54614;47.576;7.524;2023-04-03T16:19:35;23.60;49.20
67817;DHT22;54614;47.576;7.524;2023-04-03T16:22:01;23.70;49.30
67817;DHT22;54614;47.576;7.524;2023-04-03T16:24:27;23.70;49.30
67817;DHT22;54614;47.576;7.524;2023-04-03T16:26:53;23.70;49.30
67817;DHT22;54614;47.576;7.524;2023-04-03T16:29:18;23.70;49.40
67817;DHT22;54614;47.576;7.524;2023-04-03T16:31:44;23.70;49.50
67817;DHT22;54614;47.576;7.524;2023-04-03T16:34:11;23.70;49.40
67817;DHT22;54614;47.576;7.524;2023-04-03T16:36:37;23.70;49.30
67817;DHT22;54614;47.576;7.524;2023-04-03T16:39:03;23.70;49.10
67817;DHT22;54614;47.576;7.524;2023-04-03T16:41:29;23.70;49.20
67817;DHT22;54614;47.576;7.524;2023-04-03T16:43:55;23.70;49.30
67817;DHT22;54614;47.576;7.524;2023-04-03T16:46:21;23.70;49.30
67817;DHT22;54614;47.576;7.524;2023-04-03T16:48:47;23.70;49.40
67817;DHT22;54614;47.576;7.524;2023-04-03T16:51:13;23.70;49.50
67817;DHT22;54614;47.576;7.524;2023-04-03T16:53:39;23.70;49.50
67817;DHT22;54614;47.576;7.524;2023-04-03T16:56:05;23.70;49.50
67817;DHT22;54614;47.576;7.524;2023-04-03T16:58:31;23.70;49.50
67817;DHT22;54614;47.576;7.524;2023-04-03T17:00:56;23.70;49.50
67817;DHT22;54614;47.576;7.524;2023-04-03T17:03:22;23.70;49.50
67817;DHT22;54614;47.576;7.524;2023-04-03T17:05:50;23.70;49.30
67817;DHT22;54614;47.576;7.524;2023-04-03T17:08:17;23.70;49.20
67817;DHT22;54614;47.576;7.524;2023-04-03T17:10:43;23.70;49.30
67817;DHT22;54614;47.576;7.524;2023-04-03T17:13:09;23.70;49.50
67817;DHT22;54614;47.576;7.524;2023-04-03T17:15:36;23.70;49.50
67817;DHT22;54614;47.576;7.524;2023-04-03T17:18:01;23.80;49.70
67817;DHT22;54614;47.576;7.524;2023-04-03T17:20:28;23.80;49.80
67817;DHT22;54614;47.576;7.524;2023-04-03T17:22:55;23.80;50.00
67817;DHT22;54614;47.576;7.524;2023-04-03T17:25:20;23.80;50.20